createdAt,value
2023-07-21T00:02:54.522Z,98043.85
2023-07-21T00:05:59.596Z,98041.70
2023-07-21T00:09:10.382Z,98039.83
2023-07-21T00:12:21.192Z,98040.84
2023-07-21T00:15:31.942Z,98036.50
2023-07-21T00:18:43.808Z,98037.17
2023-07-21T00:21:57.203Z,98036.56
2023-07-21T00:25:12.135Z,98039.55
2023-07-21T00:28:24.311Z,98038.48
2023-07-21T00:31:35.156Z,98039.05
2023-07-21T00:34:45.921Z,98040.77
2023-07-21T00:37:57.958Z,98034.08
2023-07-21T00:41:10.144Z,98037.14
2023-07-21T00:44:24.686Z,98033.02
2023-07-21T00:47:35.424Z,98034.09
2023-07-21T00:50:46.691Z,98031.14
2023-07-21T00:53:59.461Z,98024.55
2023-07-21T00:57:10.296Z,98025.33
2023-07-21T01:00:21.034Z,98017.59
2023-07-21T01:03:33.986Z,98021.54
2023-07-21T01:06:46.303Z,98021.35
2023-07-21T01:09:57.660Z,98020.03
2023-07-21T01:13:10.617Z,98018.71
2023-07-21T01:16:21.440Z,98014.79
2023-07-21T01:19:32.235Z,98013.59
2023-07-21T01:22:38.012Z,98009.79
2023-07-21T01:25:48.833Z,98011.73
2023-07-21T01:28:52.262Z,98007.39
2023-07-21T01:32:20.765Z,98001.16
2023-07-21T01:35:31.548Z,98004.10
2023-07-21T01:38:42.411Z,98009.19
2023-07-21T01:41:54.353Z,98007.59
2023-07-21T01:45:05.515Z,98012.23
2023-07-21T01:48:16.278Z,98005.76
2023-07-21T01:51:35.513Z,98006.59
2023-07-21T01:54:42.274Z,98005.27
2023-07-21T01:57:53.643Z,98001.45
2023-07-21T02:01:04.388Z,98001.82
2023-07-21T02:04:16.133Z,98000.40
2023-07-21T02:07:28.850Z,98000.96
2023-07-21T02:10:51.153Z,98002.30
2023-07-21T02:14:04.477Z,98003.50
2023-07-21T02:17:21.192Z,98000.55
2023-07-21T02:20:40.722Z,98006.36
2023-07-21T02:23:54.458Z,98004.23
2023-07-21T02:27:07.243Z,98004.84
2023-07-21T02:30:18.016Z,97998.42
2023-07-21T02:33:30.768Z,98003.61
2023-07-21T02:36:42.890Z,98006.70
2023-07-21T02:39:55.675Z,98005.83
2023-07-21T02:43:06.404Z,98009.77
2023-07-21T02:46:26.074Z,98005.17
2023-07-21T02:49:38.368Z,98005.48
2023-07-21T02:52:40.568Z,98010.94
2023-07-21T02:55:52.592Z,98014.23
2023-07-21T02:59:03.935Z,98015.13
2023-07-21T03:02:18.698Z,98018.98
2023-07-21T03:05:30.534Z,98017.91
2023-07-21T03:08:42.252Z,98022.20
2023-07-21T03:11:54.659Z,98021.04
2023-07-21T03:15:05.554Z,98021.14
2023-07-21T03:18:17.303Z,98020.88
2023-07-21T03:21:28.602Z,98026.48
2023-07-21T03:24:39.648Z,98030.55
2023-07-21T03:27:53.487Z,98029.67
2023-07-21T03:31:12.647Z,98027.48
2023-07-21T03:34:16.906Z,98032.30
2023-07-21T03:37:20.898Z,98030.02
2023-07-21T03:40:32.854Z,98033.80
2023-07-21T03:43:44.743Z,98032.69
2023-07-21T03:46:55.517Z,98034.59
2023-07-21T03:50:24.078Z,98038.79
2023-07-21T03:53:38.062Z,98040.25
2023-07-21T03:57:00.183Z,98039.56
2023-07-21T04:00:21.324Z,98040.75
2023-07-21T04:03:32.576Z,98044.45
2023-07-21T04:06:43.461Z,98043.48
2023-07-21T04:10:11.005Z,98033.91
2023-07-21T04:13:22.944Z,98029.83
2023-07-21T04:16:37.703Z,98036.02
2023-07-21T04:19:49.602Z,98034.17
2023-07-21T04:23:01.409Z,98029.85
2023-07-21T04:26:12.642Z,98032.46
2023-07-21T04:29:35.129Z,98027.24
2023-07-21T04:32:50.473Z,98023.17
2023-07-21T04:36:01.271Z,98022.83
2023-07-21T04:39:12.243Z,98017.95
2023-07-21T04:42:22.974Z,98019.88
2023-07-21T04:45:34.799Z,98015.67
2023-07-21T04:48:47.582Z,98011.60
2023-07-21T04:51:58.370Z,98009.99
2023-07-21T04:55:09.246Z,98009.77
2023-07-21T04:58:20.180Z,98009.69
2023-07-21T05:01:47.669Z,98012.83
2023-07-21T05:05:00.762Z,98009.16
2023-07-21T05:08:13.691Z,98007.30
2023-07-21T05:11:25.496Z,98007.81
2023-07-21T05:14:36.876Z,98010.13
2023-07-21T05:17:48.949Z,98012.79
2023-07-21T05:21:01.717Z,98016.71
2023-07-21T05:24:14.407Z,98013.27
2023-07-21T05:27:25.160Z,98020.05
2023-07-21T05:30:44.226Z,98023.19
2023-07-21T05:33:55.294Z,98027.69
2023-07-21T05:37:06.069Z,98026.48
2023-07-21T05:40:18.818Z,98029.39
2023-07-21T05:43:32.334Z,98030.25
2023-07-21T05:46:43.109Z,98029.94
2023-07-21T05:49:56.594Z,98033.61
2023-07-21T05:53:10.326Z,98031.36
2023-07-21T05:56:25.887Z,98039.92
2023-07-21T05:59:38.185Z,98039.38
2023-07-21T06:02:50.758Z,98043.44
2023-07-21T06:06:03.686Z,98047.17
2023-07-21T06:09:23.948Z,98042.76
2023-07-21T06:12:36.783Z,98038.21
2023-07-21T06:15:48.640Z,98039.23
2023-07-21T06:19:12.440Z,98033.06
2023-07-21T06:22:24.851Z,98034.20
2023-07-21T06:25:45.588Z,98032.60
2023-07-21T06:29:05.838Z,98038.73
2023-07-21T06:32:33.353Z,98036.21
2023-07-21T06:35:45.407Z,98033.00
2023-07-21T06:38:57.195Z,98033.95
2023-07-21T06:42:09.035Z,98027.04
2023-07-21T06:45:21.626Z,98029.07
2023-07-21T06:48:24.360Z,98030.50
2023-07-21T06:51:35.510Z,98035.22
2023-07-21T06:54:57.680Z,98039.32
2023-07-21T06:58:10.479Z,98041.82
2023-07-21T07:01:22.277Z,98042.38
2023-07-21T07:04:33.233Z,98045.39
2023-07-21T07:07:45.060Z,98045.20
2023-07-21T07:10:58.349Z,98046.15
2023-07-21T07:14:10.431Z,98057.22
2023-07-21T07:17:21.211Z,98052.70
2023-07-21T07:20:42.517Z,98052.80
2023-07-21T07:23:55.556Z,98052.83
2023-07-21T07:27:07.924Z,98050.10
2023-07-21T07:30:20.713Z,98049.34
2023-07-21T07:33:42.811Z,98043.77
2023-07-21T07:36:55.843Z,98042.29
2023-07-21T07:40:07.846Z,98038.33
2023-07-21T07:43:29.667Z,98039.95
2023-07-21T07:46:38.068Z,98040.95
2023-07-21T07:50:08.789Z,98042.83
2023-07-21T07:53:20.165Z,98055.49
2023-07-21T07:56:31.944Z,98056.73
2023-07-21T07:59:37.304Z,98056.75
2023-07-21T08:02:50.098Z,98059.45
2023-07-21T08:06:02.298Z,98053.08
2023-07-21T08:09:23.373Z,98053.80
2023-07-21T08:12:38.842Z,98052.13
2023-07-21T08:15:49.724Z,98044.04
2023-07-21T08:19:08.933Z,98047.71
2023-07-21T08:22:21.897Z,98047.11
2023-07-21T08:25:34.092Z,98043.35
2023-07-21T08:28:47.492Z,98042.22
2023-07-21T08:31:58.283Z,98037.80
2023-07-21T08:35:17.439Z,98030.89
2023-07-21T08:38:28.187Z,98030.91
2023-07-21T08:41:45.742Z,98031.66
2023-07-21T08:44:57.491Z,98027.56
2023-07-21T08:48:09.177Z,98021.63
2023-07-21T08:51:30.730Z,98018.12
2023-07-21T08:54:44.098Z,98019.27
2023-07-21T08:57:48.841Z,98020.17
2023-07-21T09:00:52.119Z,98023.31
2023-07-21T09:04:08.748Z,98023.19
2023-07-21T09:07:21.616Z,98017.02
2023-07-21T09:10:34.860Z,98019.50
2023-07-21T09:13:59.188Z,98022.96
2023-07-21T09:17:10.009Z,98022.07
2023-07-21T09:20:24.169Z,98026.06
2023-07-21T09:23:35.920Z,98025.92
2023-07-21T09:26:48.627Z,98026.84
2023-07-21T09:30:02.611Z,98020.14
2023-07-21T09:33:13.464Z,98021.04
2023-07-21T09:36:25.893Z,98024.18
2023-07-21T09:39:39.890Z,98020.58
2023-07-21T09:42:52.674Z,98019.61
2023-07-21T09:49:38.678Z,98016.21
2023-07-21T09:52:51.538Z,98012.11
2023-07-21T09:56:02.294Z,98011.13
2023-07-21T09:59:15.170Z,98005.55
2023-07-21T10:02:29.287Z,98002.97
2023-07-21T10:05:40.413Z,97997.81
2023-07-21T10:08:51.139Z,98002.75
2023-07-21T10:12:02.991Z,98010.17
2023-07-21T10:15:22.853Z,98004.63
2023-07-21T10:18:20.600Z,98008.02
2023-07-21T10:21:23.790Z,98009.31
2023-07-21T10:24:52.225Z,98015.10
2023-07-21T10:28:06.802Z,98013.99
2023-07-21T10:32:03.230Z,98007.29
2023-07-21T10:35:21.241Z,98002.52
2023-07-21T10:38:56.832Z,97998.46
2023-07-21T10:42:09.457Z,97995.23
2023-07-21T10:45:20.246Z,97998.48
2023-07-21T10:48:44.385Z,97993.36
2023-07-21T10:51:56.202Z,97991.35
2023-07-21T10:55:09.650Z,97989.90
2023-07-21T10:58:27.333Z,97990.30
2023-07-21T11:01:38.117Z,97985.27
2023-07-21T11:04:49.779Z,97989.17
2023-07-21T11:08:06.262Z,97988.23
2023-07-21T11:11:17.177Z,97988.73
2023-07-21T11:14:28.609Z,97988.95
2023-07-21T11:17:17.934Z,97985.45
2023-07-21T11:20:31.381Z,97982.59
2023-07-21T11:23:42.165Z,97984.30
2023-07-21T11:32:15.928Z,97978.65
2023-07-21T11:35:29.271Z,97976.72
2023-07-21T11:38:49.159Z,97978.49
2023-07-21T11:41:59.549Z,97968.17
2023-07-21T11:45:10.585Z,97964.89
2023-07-21T11:48:22.200Z,97960.64
2023-07-21T11:51:35.003Z,97967.07
2023-07-21T11:54:49.789Z,97961.89
2023-07-21T11:58:01.319Z,97954.07
2023-07-21T12:01:12.739Z,97948.96
2023-07-21T12:04:40.535Z,97941.78
2023-07-21T12:08:08.069Z,97936.84
2023-07-21T12:11:20.193Z,97938.05
2023-07-21T12:14:31.775Z,97930.67
2023-07-21T12:17:43.832Z,97929.20
2023-07-21T12:21:04.383Z,97929.35
2023-07-21T12:24:15.876Z,97930.09
2023-07-21T12:27:27.816Z,97933.77
2023-07-21T12:30:55.732Z,97936.73
2023-07-21T12:34:06.994Z,97934.58
2023-07-21T12:37:28.165Z,97939.02
2023-07-21T12:40:32.564Z,97938.00
2023-07-21T12:47:17.713Z,97953.87
2023-07-21T12:50:29.955Z,97955.56
2023-07-21T12:53:41.683Z,97953.11
2023-07-21T12:56:53.534Z,97955.27
2023-07-21T13:00:21.091Z,97956.17
2023-07-21T13:03:33.257Z,97944.69
2023-07-21T13:06:44.685Z,97941.11
2023-07-21T13:09:57.898Z,97939.90
2023-07-21T13:13:10.387Z,97940.27
2023-07-21T13:16:29.993Z,97939.55
2023-07-21T13:19:49.761Z,97939.23
2023-07-21T13:23:20.573Z,97936.36
2023-07-21T13:26:28.858Z,97938.04
2023-07-21T13:29:41.386Z,97941.54
2023-07-21T13:32:52.310Z,97942.02
2023-07-21T13:35:57.294Z,97936.10
2023-07-21T13:39:09.004Z,97933.48
2023-07-21T13:42:28.613Z,97926.73
2023-07-21T13:45:56.175Z,97913.69
2023-07-21T13:48:59.282Z,97913.01
2023-07-21T13:52:11.443Z,97914.35
2023-07-21T13:55:23.902Z,97915.20
2023-07-21T13:58:43.883Z,97911.57
2023-07-21T14:02:03.316Z,97912.25
2023-07-21T14:05:14.429Z,97906.80
2023-07-21T14:08:33.959Z,97909.29
2023-07-21T14:11:45.149Z,97915.27
2023-07-21T14:14:58.016Z,97910.67
2023-07-21T14:18:10.590Z,97906.41
2023-07-21T14:21:23.957Z,97906.20
2023-07-21T14:24:37.310Z,97905.09
2023-07-21T14:27:48.393Z,97894.62
2023-07-21T14:31:00.536Z,97893.24
2023-07-21T14:34:11.375Z,97891.37
2023-07-21T14:37:22.471Z,97895.30
2023-07-21T14:40:33.554Z,97894.20
2023-07-21T14:43:44.589Z,97885.56
2023-07-21T14:46:57.392Z,97879.35
2023-07-21T14:50:17.089Z,97878.78
2023-07-21T14:53:36.889Z,97875.73
2023-07-21T14:56:54.385Z,97866.85
2023-07-21T15:00:05.284Z,97859.87
2023-07-21T15:03:24.496Z,97859.91
2023-07-21T15:06:35.574Z,97860.34
2023-07-21T15:09:46.316Z,97856.10
2023-07-21T15:12:57.176Z,97853.59
2023-07-21T15:16:07.980Z,97845.13
2023-07-21T15:19:20.349Z,97836.59
2023-07-21T15:22:39.561Z,97834.42
2023-07-21T15:25:50.828Z,97821.91
2023-07-21T15:29:03.398Z,97827.93
2023-07-21T15:32:15.161Z,97830.96
2023-07-21T15:35:28.195Z,97824.67
2023-07-21T15:38:39.828Z,97817.02
2023-07-21T15:41:50.617Z,97818.20
2023-07-21T15:45:01.427Z,97819.30
2023-07-21T15:48:12.492Z,97817.34
2023-07-21T15:51:41.189Z,97817.73
2023-07-21T15:54:53.525Z,97821.27
2023-07-21T15:58:04.302Z,97823.13
2023-07-21T16:01:24.492Z,97823.00
2023-07-21T16:04:37.060Z,97823.95
2023-07-21T16:07:49.338Z,97808.48
2023-07-21T16:11:00.240Z,97802.67
2023-07-21T16:14:12.027Z,97801.91
2023-07-21T16:17:25.454Z,97788.42
2023-07-21T16:20:36.347Z,97779.39
2023-07-21T16:23:47.598Z,97770.84
2023-07-21T16:26:58.362Z,97769.06
2023-07-21T16:30:17.574Z,97766.31
2023-07-21T16:33:29.905Z,97770.02
2023-07-21T16:36:41.747Z,97763.41
2023-07-21T16:39:53.663Z,97772.66
2023-07-21T16:43:05.433Z,97769.12
2023-07-21T16:46:16.356Z,97758.46
2023-07-21T16:49:27.170Z,97752.55
2023-07-21T16:52:47.465Z,97752.66
2023-07-21T16:55:58.329Z,97748.14
2023-07-21T16:59:09.648Z,97745.05
2023-07-21T17:02:13.177Z,97738.69
2023-07-21T17:05:40.921Z,97733.55
2023-07-21T17:09:00.113Z,97732.39
2023-07-21T17:12:12.668Z,97731.44
2023-07-21T17:15:25.237Z,97735.15
2023-07-21T17:18:46.138Z,97735.90
2023-07-21T17:21:58.840Z,97732.05
2023-07-21T17:25:16.679Z,97723.23
2023-07-21T17:28:28.170Z,97720.27
2023-07-21T17:31:40.369Z,97721.45
2023-07-21T17:34:52.002Z,97718.96
2023-07-21T17:38:13.174Z,97720.61
2023-07-21T17:41:24.461Z,97726.39
2023-07-21T17:44:35.460Z,97723.50
2023-07-21T17:47:55.751Z,97717.02
2023-07-21T17:51:14.894Z,97713.47
2023-07-21T17:54:35.036Z,97708.62
2023-07-21T17:57:48.683Z,97702.46
2023-07-21T18:01:09.224Z,97693.50
2023-07-21T18:04:20.005Z,97691.52
2023-07-21T18:07:33.081Z,97687.31
2023-07-21T18:10:46.713Z,97688.29
2023-07-21T18:13:58.757Z,97683.33
2023-07-21T18:17:26.438Z,97675.59
2023-07-21T18:20:38.387Z,97679.05
2023-07-21T18:23:49.866Z,97674.11
2023-07-21T18:27:01.241Z,97671.21
2023-07-21T18:30:28.801Z,97670.40
2023-07-21T18:33:41.869Z,97668.58
2023-07-21T18:37:03.802Z,97665.23
2023-07-21T18:40:23.208Z,97665.45
2023-07-21T18:43:42.350Z,97663.80
2023-07-21T18:46:41.175Z,97663.58
2023-07-21T18:49:52.293Z,97664.13
2023-07-21T18:53:03.253Z,97663.88
2023-07-21T18:56:22.668Z,97672.64
2023-07-21T18:59:34.067Z,97678.16
2023-07-21T19:02:46.100Z,97683.36
2023-07-21T19:06:06.254Z,97685.30
2023-07-21T19:09:12.347Z,97682.30
2023-07-21T19:12:30.747Z,97674.73
2023-07-21T19:15:44.508Z,97679.39
2023-07-21T19:18:56.168Z,97681.20
2023-07-21T19:22:07.581Z,97680.20
2023-07-21T19:25:26.936Z,97681.97
2023-07-21T19:28:31.102Z,97683.60
2023-07-21T19:31:43.548Z,97690.64
2023-07-21T19:34:54.734Z,97694.45
2023-07-21T19:38:21.235Z,97697.48
2023-07-21T19:41:32.056Z,97693.80
2023-07-21T19:44:52.375Z,97690.91
2023-07-21T19:48:18.917Z,97696.63
2023-07-21T19:51:29.684Z,97699.15
2023-07-21T19:54:49.493Z,97703.52
2023-07-21T19:57:54.671Z,97704.08
2023-07-21T20:01:06.730Z,97703.16
2023-07-21T20:04:18.980Z,97706.43
2023-07-21T20:07:38.242Z,97698.36
2023-07-21T20:10:49.414Z,97700.33
2023-07-21T20:14:00.783Z,97698.63
2023-07-21T20:17:12.815Z,97705.55
2023-07-21T20:20:32.978Z,97704.37
2023-07-21T20:23:52.170Z,97711.83
2023-07-21T20:27:03.948Z,97717.02
2023-07-21T20:30:24.104Z,97708.61
2023-07-21T20:33:36.940Z,97708.52
2023-07-21T20:36:48.291Z,97713.70
2023-07-21T20:40:07.561Z,97716.17
2023-07-21T20:43:06.321Z,97732.54
2023-07-21T20:46:26.027Z,97738.52
2023-07-21T20:49:37.309Z,97730.04
2023-07-21T20:52:48.370Z,97723.04
2023-07-21T20:56:08.131Z,97724.29
2023-07-21T20:59:35.561Z,97729.78
2023-07-21T21:03:00.633Z,97729.30
2023-07-21T21:06:20.073Z,97723.00
2023-07-21T21:09:19.896Z,97725.17
2023-07-21T21:12:33.509Z,97716.85
2023-07-21T21:15:45.260Z,97708.54
2023-07-21T21:19:04.939Z,97709.37
2023-07-21T21:22:17.161Z,97712.23
2023-07-21T21:25:38.456Z,97711.21
2023-07-21T21:28:49.396Z,97711.73
2023-07-21T21:32:00.984Z,97714.54
2023-07-21T21:35:13.318Z,97709.26
2023-07-21T21:38:24.494Z,97707.71
2023-07-21T21:41:55.012Z,97711.81
2023-07-21T21:45:15.216Z,97711.17
2023-07-21T21:48:28.819Z,97714.66
2023-07-21T21:51:40.187Z,97717.14
2023-07-21T21:54:51.908Z,97718.99
2023-07-21T21:58:05.084Z,97725.45
2023-07-21T22:01:18.276Z,97724.20
2023-07-21T22:04:32.240Z,97731.95
2023-07-21T22:07:46.578Z,97729.86
2023-07-21T22:11:06.381Z,97733.27
2023-07-21T22:14:18.282Z,97736.15
2023-07-21T22:17:45.751Z,97736.45
2023-07-21T22:20:59.172Z,97737.39
2023-07-21T22:24:26.830Z,97753.44
2023-07-21T22:27:40.899Z,97758.34
2023-07-21T22:30:54.569Z,97753.65
2023-07-21T22:34:15.167Z,97756.95
2023-07-21T22:37:26.318Z,97757.39
2023-07-21T22:40:38.640Z,97753.77
2023-07-21T22:43:57.948Z,97753.27
2023-07-21T22:47:11.683Z,97753.67
2023-07-21T22:50:26.041Z,97755.71
2023-07-21T22:53:36.021Z,97756.97
2023-07-21T22:56:48.913Z,97761.12
2023-07-21T23:00:01.287Z,97766.65
2023-07-21T23:03:12.067Z,97775.67
2023-07-21T23:06:31.436Z,97781.58
2023-07-21T23:09:30.178Z,97782.77
2023-07-21T23:12:41.301Z,97779.95
2023-07-21T23:15:52.367Z,97781.82
2023-07-21T23:19:04.437Z,97788.05
2023-07-21T23:22:15.242Z,97792.17
2023-07-21T23:25:34.463Z,97794.89
2023-07-21T23:28:45.769Z,97800.95
2023-07-21T23:31:59.221Z,97804.99
2023-07-21T23:35:10.350Z,97813.84
2023-07-21T23:38:21.736Z,97825.51
2023-07-21T23:41:41.840Z,97825.11
2023-07-21T23:44:55.245Z,97830.63
2023-07-21T23:48:06.082Z,97836.46
2023-07-21T23:51:19.279Z,97838.64
2023-07-21T23:54:38.366Z,97842.37
2023-07-21T23:57:57.628Z,97844.63
